createdAt,value
2017-10-29T00:00:03.435Z,1006.32
2017-10-29T00:05:02.844Z,1006.18
2017-10-29T00:10:03.338Z,1006.1
2017-10-29T00:15:02.858Z,1005.65
2017-10-29T00:20:03.366Z,1005.96
2017-10-29T00:25:02.759Z,1005.89
2017-10-29T00:30:03.216Z,1005.82
2017-10-29T00:35:02.696Z,1005.93
2017-10-29T00:40:03.264Z,1005.86
2017-10-29T00:45:02.825Z,1005.76
2017-10-29T00:50:03.333Z,1005.6
2017-10-29T00:55:02.826Z,1005.67
2017-10-29T01:00:03.333Z,1005.66
2017-10-29T01:05:02.982Z,1005.5
2017-10-29T01:10:03.440Z,1005.54
2017-10-29T01:15:02.777Z,1005.39
2017-10-29T01:20:03.201Z,1005.42
2017-10-29T01:25:03.585Z,1005.41
2017-10-29T01:30:03.284Z,1005.29
2017-10-29T01:35:02.904Z,1005.11
2017-10-29T01:40:03.483Z,1005.11
2017-10-29T01:45:03.010Z,1005.18
2017-10-29T01:50:03.398Z,1005.08
2017-10-29T01:55:02.842Z,1005
2017-10-29T02:00:03.370Z,1004.83
2017-10-29T02:05:02.967Z,1004.81
2017-10-29T02:10:03.573Z,1004.83
2017-10-29T02:15:03.100Z,1004.7
2017-10-29T02:20:03.510Z,1004.53
2017-10-29T02:25:03.146Z,1004.29
2017-10-29T02:30:03.619Z,1004.21
2017-10-29T02:35:03.098Z,1004.41
2017-10-29T02:40:03.733Z,1004.38
2017-10-29T02:45:03.255Z,1004.37
2017-10-29T02:50:02.818Z,1004.23
2017-10-29T02:55:03.192Z,1004.25
2017-10-29T03:00:02.798Z,1005.05
2017-10-29T03:05:03.342Z,1004.97
2017-10-29T03:10:02.809Z,1005.01
2017-10-29T03:15:03.387Z,1005.16
2017-10-29T03:20:02.820Z,1005.01
2017-10-29T03:25:03.321Z,1005.12
2017-10-29T03:30:02.793Z,1005.03
2017-10-29T03:35:03.340Z,1005.44
2017-10-29T03:40:02.840Z,1005.67
2017-10-29T03:45:03.462Z,1005.92
2017-10-29T03:50:03.068Z,1005.94
2017-10-29T03:55:03.471Z,1006.07
2017-10-29T04:00:02.858Z,1006.1
2017-10-29T04:05:03.402Z,1006.2
2017-10-29T04:10:02.826Z,1006.12
2017-10-29T04:15:03.419Z,1006.24
2017-10-29T04:20:03.039Z,1006.15
2017-10-29T04:25:03.477Z,1006.27
2017-10-29T04:30:02.939Z,1006.13
2017-10-29T04:35:03.458Z,1006.27
2017-10-29T04:40:02.985Z,1006.37
2017-10-29T04:45:03.542Z,1006.47
2017-10-29T04:50:03.153Z,1006.58
2017-10-29T04:55:02.628Z,1006.64
2017-10-29T05:00:03.131Z,1007.01
2017-10-29T05:05:03.656Z,1007.04
2017-10-29T05:10:03.295Z,1007.04
2017-10-29T05:15:02.732Z,1007.35
2017-10-29T05:20:03.226Z,1007.35
2017-10-29T05:25:02.712Z,1007.29
2017-10-29T05:30:03.544Z,1007.45
2017-10-29T05:35:03.085Z,1007.55
2017-10-29T05:40:03.607Z,1007.55
2017-10-29T05:45:03.018Z,1007.7
2017-10-29T05:50:02.712Z,1007.83
2017-10-29T05:55:03.109Z,1007.97
2017-10-29T06:00:03.557Z,1008.19
2017-10-29T06:05:03.027Z,1008.3
2017-10-29T06:10:02.676Z,1008.41
2017-10-29T06:15:03.054Z,1008.46
2017-10-29T06:20:02.673Z,1008.71
2017-10-29T06:25:03.091Z,1008.74
2017-10-29T06:30:03.500Z,1008.92
2017-10-29T06:35:02.982Z,1009.12
2017-10-29T06:40:03.405Z,1009.27
2017-10-29T06:45:02.821Z,1009.4
2017-10-29T06:50:03.246Z,1009.66
2017-10-29T06:55:02.723Z,1009.74
2017-10-29T07:00:03.127Z,1009.88
2017-10-29T07:05:02.679Z,1009.92
2017-10-29T07:10:03.292Z,1010.03
2017-10-29T07:15:02.817Z,1010.12
2017-10-29T07:20:03.224Z,1010.26
2017-10-29T07:25:02.839Z,1010.29
2017-10-29T07:30:03.414Z,1010.34
2017-10-29T07:35:02.739Z,1010.53
2017-10-29T07:45:02.658Z,1010.74
2017-10-29T07:50:02.642Z,1010.64
2017-10-29T07:55:02.917Z,1010.89
2017-10-29T08:00:03.484Z,1011.02
2017-10-29T08:05:02.968Z,1011.15
2017-10-29T08:10:02.666Z,1011.24
2017-10-29T08:15:03.244Z,1011.42
2017-10-29T08:20:02.804Z,1011.61
2017-10-29T08:25:03.322Z,1011.74
2017-10-29T08:30:02.833Z,1011.92
2017-10-29T08:35:03.417Z,1011.95
2017-10-29T08:40:02.902Z,1012.02
2017-10-29T08:45:03.275Z,1012.09
2017-10-29T08:50:02.843Z,1012.01
2017-10-29T08:55:03.465Z,1012.11
2017-10-29T09:00:03.038Z,1012.1
2017-10-29T09:05:03.446Z,1012.24
2017-10-29T09:10:03.072Z,1012.18
2017-10-29T09:15:03.514Z,1012.51
2017-10-29T09:20:02.933Z,1012.45
2017-10-29T09:25:03.315Z,1012.6
2017-10-29T09:30:02.903Z,1012.7
2017-10-29T09:35:03.523Z,1012.95
2017-10-29T09:40:03.095Z,1012.97
2017-10-29T09:45:03.519Z,1013.09
2017-10-29T09:50:02.954Z,1013.16
2017-10-29T09:55:03.574Z,1013.29
2017-10-29T10:00:03.213Z,1013.39
2017-10-29T10:05:02.782Z,1013.36
2017-10-29T10:10:03.367Z,1013.59
2017-10-29T10:15:02.854Z,1013.62
2017-10-29T10:20:03.505Z,1013.69
2017-10-29T10:25:03.031Z,1013.81
2017-10-29T10:30:03.484Z,1013.68
2017-10-29T10:35:03.131Z,1013.82
2017-10-29T10:40:02.783Z,1013.82
2017-10-29T10:45:03.183Z,1013.82
2017-10-29T10:50:03.561Z,1014.16
2017-10-29T10:55:03.112Z,1014.17
2017-10-29T11:00:02.650Z,1014.1
2017-10-29T11:05:03.156Z,1014.07
2017-10-29T11:10:03.658Z,1014
2017-10-29T11:15:03.142Z,1013.92
2017-10-29T11:20:02.712Z,1014.08
2017-10-29T11:25:03.136Z,1014.14
2017-10-29T11:30:02.717Z,1014.04
2017-10-29T11:35:03.504Z,1014.1
2017-10-29T11:40:03.088Z,1014.1
2017-10-29T11:45:03.536Z,1014.17
2017-10-29T11:50:03.069Z,1014.18
2017-10-29T11:55:03.617Z,1014.22
2017-10-29T12:00:03.178Z,1014.42
2017-10-29T12:05:03.630Z,1014.77
2017-10-29T12:10:03.273Z,1014.65
2017-10-29T12:15:02.715Z,1014.58
2017-10-29T12:20:03.158Z,1014.65
2017-10-29T12:25:03.635Z,1014.8
2017-10-29T12:30:03.024Z,1014.65
2017-10-29T12:35:03.616Z,1014.71
2017-10-29T12:40:03.183Z,1014.87
2017-10-29T12:45:03.609Z,1014.97
2017-10-29T12:50:03.175Z,1015.12
2017-10-29T12:55:02.775Z,1015.12
2017-10-29T13:00:03.127Z,1015.03
2017-10-29T13:05:02.803Z,1015.29
2017-10-29T13:10:03.380Z,1015.19
2017-10-29T13:15:02.851Z,1015.14
2017-10-29T13:20:03.320Z,1015.11
2017-10-29T13:25:02.923Z,1015.25
2017-10-29T13:30:03.323Z,1015.31
2017-10-29T13:35:02.820Z,1015.43
2017-10-29T13:40:03.301Z,1015.54
2017-10-29T13:45:02.884Z,1015.46
2017-10-29T13:50:03.377Z,1015.54
2017-10-29T13:55:02.819Z,1015.64
2017-10-29T14:00:03.277Z,1015.81
2017-10-29T14:05:02.656Z,1015.93
2017-10-29T14:10:03.328Z,1015.81
2017-10-29T14:15:02.725Z,1015.87
2017-10-29T14:20:03.121Z,1015.75
2017-10-29T14:25:03.452Z,1015.69
2017-10-29T14:30:03.000Z,1015.66
2017-10-29T14:35:02.653Z,1015.8
2017-10-29T14:40:03.316Z,1015.88
2017-10-29T14:45:02.924Z,1016.01
2017-10-29T14:50:03.313Z,1016.16
2017-10-29T14:55:03.672Z,1016.19
2017-10-29T15:00:03.122Z,1016.12
2017-10-29T15:05:02.662Z,1016.33
2017-10-29T15:10:03.292Z,1016.39
2017-10-29T15:15:02.668Z,1016.59
2017-10-29T15:20:03.051Z,1016.65
2017-10-29T15:25:03.600Z,1016.71
2017-10-29T15:30:02.976Z,1016.64
2017-10-29T15:35:03.646Z,1016.73
2017-10-29T15:40:03.266Z,1016.76
2017-10-29T15:45:02.866Z,1016.93
2017-10-29T15:50:03.222Z,1016.92
2017-10-29T15:55:02.815Z,1016.95
2017-10-29T16:00:03.189Z,1017.18
2017-10-29T16:05:03.603Z,1017.18
2017-10-29T16:10:03.010Z,1017.22
2017-10-29T16:15:03.599Z,1017.24
2017-10-29T16:20:03.195Z,1017.29
2017-10-29T16:25:03.587Z,1017.46
2017-10-29T16:30:02.951Z,1017.51
2017-10-29T16:35:03.493Z,1017.54
2017-10-29T16:40:03.093Z,1017.58
2017-10-29T16:45:03.612Z,1017.76
2017-10-29T16:50:03.020Z,1017.71
2017-10-29T16:55:02.741Z,1017.7
2017-10-29T17:00:03.356Z,1017.73
2017-10-29T17:05:02.940Z,1017.77
2017-10-29T17:10:03.501Z,1017.99
2017-10-29T17:15:02.915Z,1018.08
2017-10-29T17:20:03.340Z,1018.18
2017-10-29T17:25:02.684Z,1018.25
2017-10-29T17:30:03.197Z,1018.3
2017-10-29T17:35:02.760Z,1018.43
2017-10-29T17:40:03.379Z,1018.57
2017-10-29T17:45:03.011Z,1018.71
2017-10-29T17:50:02.637Z,1018.77
2017-10-29T17:55:03.010Z,1018.83
2017-10-29T18:00:03.412Z,1018.82
2017-10-29T18:05:02.964Z,1018.85
2017-10-29T18:10:03.632Z,1018.92
2017-10-29T18:15:02.980Z,1018.88
2017-10-29T18:20:03.568Z,1018.97
2017-10-29T18:25:03.185Z,1018.95
2017-10-29T18:30:03.622Z,1018.91
2017-10-29T18:35:03.364Z,1018.95
2017-10-29T18:40:02.918Z,1018.96
2017-10-29T18:45:03.367Z,1019.02
2017-10-29T18:50:02.965Z,1019.02
2017-10-29T18:55:03.424Z,1019.14
2017-10-29T19:00:02.848Z,1019.23
2017-10-29T19:05:03.464Z,1019.33
2017-10-29T19:10:02.871Z,1019.41
2017-10-29T19:15:03.549Z,1019.4
2017-10-29T19:20:03.127Z,1019.43
2017-10-29T19:25:02.697Z,1019.46
2017-10-29T19:30:03.291Z,1019.57
2017-10-29T19:35:02.881Z,1019.57
2017-10-29T19:40:03.333Z,1019.56
2017-10-29T19:45:02.796Z,1019.71
2017-10-29T19:50:03.431Z,1019.82
2017-10-29T19:55:02.976Z,1019.9
2017-10-29T20:00:03.304Z,1019.93
2017-10-29T20:05:02.791Z,1019.97
2017-10-29T20:10:03.201Z,1020.02
2017-10-29T20:15:02.728Z,1020
2017-10-29T20:20:03.313Z,1020.21
2017-10-29T20:25:02.894Z,1020.14
2017-10-29T20:30:03.481Z,1020.21
2017-10-29T20:35:03.174Z,1020.33
2017-10-29T20:45:03.210Z,1020.39
2017-10-29T20:50:03.598Z,1020.41
2017-10-29T20:55:03.202Z,1020.5
2017-10-29T21:00:02.723Z,1020.49
2017-10-29T21:05:03.356Z,1020.62
2017-10-29T21:10:02.964Z,1020.65
2017-10-29T21:15:03.539Z,1020.62
2017-10-29T21:20:02.990Z,1020.56
2017-10-29T21:25:03.598Z,1020.68
2017-10-29T21:30:03.129Z,1020.69
2017-10-29T21:35:03.473Z,1020.63
2017-10-29T21:40:03.170Z,1020.71
2017-10-29T21:45:02.667Z,1020.8
2017-10-29T21:50:03.247Z,1020.85
2017-10-29T21:55:02.840Z,1020.83
2017-10-29T22:00:03.574Z,1020.92
2017-10-29T22:05:03.087Z,1020.86
2017-10-29T22:10:02.731Z,1020.84
2017-10-29T22:15:03.397Z,1020.74
2017-10-29T22:25:03.493Z,1020.75
2017-10-29T22:30:03.194Z,1020.67
2017-10-29T22:35:02.828Z,1020.8
2017-10-29T22:40:03.338Z,1020.76
2017-10-29T22:45:02.884Z,1020.77
2017-10-29T22:50:03.264Z,1020.84
2017-10-29T22:55:02.728Z,1020.78
2017-10-29T23:00:03.329Z,1020.85
2017-10-29T23:05:02.710Z,1021.01
2017-10-29T23:10:03.375Z,1020.98
2017-10-29T23:15:02.804Z,1020.97
2017-10-29T23:20:03.448Z,1021.03
2017-10-29T23:25:02.833Z,1021.03
2017-10-29T23:30:03.434Z,1021.07
2017-10-29T23:35:03.073Z,1021.2
2017-10-29T23:40:02.728Z,1021.21
2017-10-29T23:45:03.317Z,1021.22
2017-10-29T23:50:02.955Z,1021.33
2017-10-29T23:55:03.415Z,1021.42
